Ocean Glory — D5JC4 — position and weather

sailwx.info

Track history (hours):
 
Tides and Currents Weather Stations Pressure Air Temp Water Temp Dewpoint Dewpoint Depression Visibility Wind Speed Wind Dir Waves Ship Positions

Ocean Glory

Last reported at 2017-Sep-24 08:46 UTC. Time now 2017-Oct-18 18:52 UTC.
Position N 27°37' W 082°40'.
Warning: this ship's position is 24 days out of date.

Length 190 m; draft 6.8 m.

Type: Cargo ship. MMSI: 636017058.

Date/timePositionNaut miles runAvg speedWind from/ knotsBaromVisibWave heightAir tempDewpointWater temp
2017-Sep-24 08:46N 27°37' W 082°40'611.2
2017-Sep-24 08:16N 27°41' W 082°35'311.1
2017-Sep-24 08:00N 27°43' W 082°33'510.5
2017-Sep-24 07:30N 27°48' W 082°30'510.1
2017-Sep-24 07:00N 27°52' W 082°27'3 5.7
2017-Sep-24 06:30N 27°54' W 082°25'0 0.2
2017-Sep-24 05:59N 27°54' W 082°25'0 0.0
2017-Sep-24 05:29N 27°54' W 082°25'0 0.0
2017-Sep-24 04:58N 27°54' W 082°25'0 0.0
2017-Sep-24 04:29N 27°54' W 082°25'0 0.0
2017-Sep-24 03:58N 27°54' W 082°25'0 0.0
2017-Sep-24 03:28N 27°54' W 082°25'0 0.0
2017-Sep-24 02:58N 27°54' W 082°25'0 0.0
2017-Sep-24 02:28N 27°54' W 082°25'0 0.0
2017-Sep-24 01:58N 27°54' W 082°25'0 0.0
2017-Sep-24 01:28N 27°54' W 082°25'0 0.0
2017-Sep-24 00:58N 27°54' W 082°25'0 0.0
2017-Sep-24 00:28N 27°54' W 082°25'0 0.0
2017-Sep-23 23:58N 27°54' W 082°25'0 0.0
2017-Sep-23 23:28N 27°54' W 082°25'0 0.0
2017-Sep-23 22:58N 27°54' W 082°25'0 0.0
2017-Sep-23 22:28N 27°54' W 082°25'0 0.0
2017-Sep-23 21:58N 27°54' W 082°25'0 0.0
2017-Sep-23 21:28N 27°54' W 082°25'0 0.0
2017-Sep-23 20:58N 27°54' W 082°25'0 0.0
2017-Sep-23 20:28N 27°54' W 082°25'0 0.0
2017-Sep-23 19:58N 27°54' W 082°25'  
2017-Sep-19 11:55N 25°27' W 079°33'510.1
2017-Sep-19 11:28N 25°32' W 079°34'510.0
2017-Sep-19 10:58N 25°37' W 079°34'5 9.8
2017-Sep-19 10:29N 25°42' W 079°33'5 9.7
2017-Sep-19 10:00N 25°46' W 079°33'5 9.7
2017-Sep-19 09:30N 25°51' W 079°33'5 9.6
2017-Sep-19 09:00N 25°56' W 079°33'5 9.6
2017-Sep-19 08:26N 26°01' W 079°32'4 9.8
2017-Sep-19 08:00N 26°05' W 079°30'5 9.9
2017-Sep-19 07:30N 26°10' W 079°29'5 9.9
2017-Sep-19 07:00N 26°15' W 079°27'  
2017-Sep-14 12:22N 30°10' W 080°52'  
Track history (hours):
 
Tides and Currents Weather Stations Pressure Air Temp Water Temp Dewpoint Dewpoint Depression Visibility Wind Speed Wind Dir Waves Ship Positions

Ocean Glory

Last reported at 2017-Sep-24 08:46 UTC. Time now 2017-Oct-18 18:52 UTC.
Position N 27°37' W 082°40'.
Warning: this ship's position is 24 days out of date.

Length 190 m; draft 6.8 m.

Type: Cargo ship. MMSI: 636017058.

Date/timePositionNaut miles runAvg speedWind from/ knotsBaromVisibWave heightAir tempDewpointWater temp
2017-Sep-24 08:46N 27°37' W 082°40'611.2
2017-Sep-24 08:16N 27°41' W 082°35'311.1
2017-Sep-24 08:00N 27°43' W 082°33'510.5
2017-Sep-24 07:30N 27°48' W 082°30'510.1
2017-Sep-24 07:00N 27°52' W 082°27'3 5.7
2017-Sep-24 06:30N 27°54' W 082°25'0 0.2
2017-Sep-24 05:59N 27°54' W 082°25'0 0.0
2017-Sep-24 05:29N 27°54' W 082°25'0 0.0
2017-Sep-24 04:58N 27°54' W 082°25'0 0.0
2017-Sep-24 04:29N 27°54' W 082°25'0 0.0
2017-Sep-24 03:58N 27°54' W 082°25'0 0.0
2017-Sep-24 03:28N 27°54' W 082°25'0 0.0
2017-Sep-24 02:58N 27°54' W 082°25'0 0.0
2017-Sep-24 02:28N 27°54' W 082°25'0 0.0
2017-Sep-24 01:58N 27°54' W 082°25'0 0.0
2017-Sep-24 01:28N 27°54' W 082°25'0 0.0
2017-Sep-24 00:58N 27°54' W 082°25'0 0.0
2017-Sep-24 00:28N 27°54' W 082°25'0 0.0
2017-Sep-23 23:58N 27°54' W 082°25'0 0.0
2017-Sep-23 23:28N 27°54' W 082°25'0 0.0
2017-Sep-23 22:58N 27°54' W 082°25'0 0.0
2017-Sep-23 22:28N 27°54' W 082°25'0 0.0
2017-Sep-23 21:58N 27°54' W 082°25'0 0.0
2017-Sep-23 21:28N 27°54' W 082°25'0 0.0
2017-Sep-23 20:58N 27°54' W 082°25'0 0.0
2017-Sep-23 20:28N 27°54' W 082°25'0 0.0
2017-Sep-23 19:58N 27°54' W 082°25'  
2017-Sep-19 11:55N 25°27' W 079°33'510.1
2017-Sep-19 11:28N 25°32' W 079°34'510.0
2017-Sep-19 10:58N 25°37' W 079°34'5 9.8
2017-Sep-19 10:29N 25°42' W 079°33'5 9.7
2017-Sep-19 10:00N 25°46' W 079°33'5 9.7
2017-Sep-19 09:30N 25°51' W 079°33'5 9.6
2017-Sep-19 09:00N 25°56' W 079°33'5 9.6
2017-Sep-19 08:26N 26°01' W 079°32'4 9.8
2017-Sep-19 08:00N 26°05' W 079°30'5 9.9
2017-Sep-19 07:30N 26°10' W 079°29'5 9.9
2017-Sep-19 07:00N 26°15' W 079°27'  
2017-Sep-14 12:22N 30°10' W 080°52'  

Dump ship's entire track history